Aviation Digital Data Service (ADDS)

Output produced by METARs form (1329 UTC 22 April 2021)
found at http://www.aviationweather.gov/metar/data/
 
VTBU 221300Z 00000KT 9999 FEW020 28/26 Q1007 NOSIG
VTBU 221230Z VRB02KT 9999 FEW020 28/27 Q1007 NOSIG
VTBU 221200Z 35004KT 9999 FEW020 28/27 Q1007 NOSIG
VTBU 221130Z 28004KT 9999 FEW020 29/26 Q1007 NOSIG
VTBU 221100Z VRB02KT 9999 FEW020 30/26 Q1006 NOSIG
VTBU 221030Z 00000KT 9999 FEW020 30/26 Q1006 NOSIG
VTBU 221000Z 32004KT 9999 FEW020 29/25 Q1006 NOSIG
VTBU 220930Z 36004KT 9999 FEW020 28/26 Q1006 NOSIG
VTBU 220900Z VRB02KT 9999 FEW020 28/25 Q1006 NOSIG
VTBU 220830Z VRB02KT 9999 FEW020 27/24 Q1006 NOSIG
VTBU 220800Z VRB02KT 9999 FEW020 27/26 Q1006 NOSIG
VTBU 220730Z 05004KT 9999 FEW020 27/24 Q1007 NOSIG
VTBU 220700Z VRB02KT 9999 FEW020 SCT100 26/24 Q1008 RETSRA NOSIG
VTBU 220630Z 05004KT 9000 -TSRA FEW018CB SCT035 26/24 Q1009 BECMG TL0700 -RA
VTBU 220600Z 27010KT 9999 3000W TSRA FEW018CB SCT035 27/23 Q1009 RETSRA TEMPO TL0620 2000 +TSRA
VTBU 220530Z 18008KT 9999 4500W -TSRA FEW018CB SCT035 31/26 Q1009 RETSRA TEMPO TL0610 4000 TSRA
VTBU 220500Z 18008KT 9999 FEW018 SCT035 32/26 Q1010 NOSIG
VTBU 220430Z 15004KT 9999 FEW020 32/25 Q1010 NOSIG
VTBU 220400Z VRB02KT 9999 FEW020 32/25 Q1010 NOSIG
VTBU 220330Z 22004KT 9999 FEW020 31/25 Q1011 NOSIG
VTBU 220300Z 20004KT 9999 FEW020 31/25 Q1011 NOSIG
VTBU 220230Z 22004KT 9999 FEW020 31/26 Q1011 NOSIG
VTBU 220200Z 21004KT 9999 FEW020 30/26 Q1011 NOSIG
VTBU 220130Z VRB02KT 9999 FEW020 30/26 Q1011 NOSIG
VTBU 220100Z VRB02KT 9999 FEW020 29/27 Q1010 NOSIG
VTBU 220030Z 35004KT 9999 FEW020 27/26 Q1010 NOSIG
VTBU 220000Z 35005KT 9999 FEW020 26/25 Q1009 NOSIG
VTBU 212330Z 33004KT 9999 FEW020 26/25 Q1009 NOSIG
VTBU 212300Z 01004KT 9999 FEW020 26/25 Q1008 NOSIG
VTBU 212230Z 36004KT 9999 FEW020 26/26 Q1008 NOSIG
VTBU 212200Z VRB02KT 9999 FEW020 26/26 Q1008 NOSIG
VTBU 212130Z 36003KT 9999 FEW020 26/25 Q1008 NOSIG
VTBU 212100Z 35003KT 9999 FEW020 26/25 Q1007 NOSIG
VTBU 212030Z 34003KT 9999 FEW020 26/25 Q1007 NOSIG
VTBU 212000Z 34003KT 9999 FEW020 26/25 Q1007 NOSIG
VTBU 211930Z 00000KT 9999 FEW020 27/26 Q1008 NOSIG
VTBU 211900Z 00000KT 9999 FEW020 27/26 Q1008 NOSIG
VTBU 211830Z VRB02KT 9999 FEW020 27/26 Q1008 NOSIG
VTBU 211800Z 22004KT 9999 FEW020 29/25 Q1009 NOSIG
VTBU 211730Z 23004KT 9999 FEW020 29/25 Q1009 NOSIG
VTBU 211700Z 22004KT 9999 FEW020 29/25 Q1010 NOSIG
VTBU 211630Z 22004KT 9999 FEW020 29/25 Q1010 NOSIG
VTBU 211600Z 22006KT 9999 FEW020 29/25 Q1010 NOSIG
VTBU 211530Z 20007KT 9999 FEW020 29/25 Q1010 NOSIG
VTBU 211500Z 20005KT 9999 FEW020 29/25 Q1010 NOSIG
VTBU 211430Z 19006KT 9999 FEW020 29/25 Q1010 NOSIG
VTBU 211400Z 20005KT 9999 FEW020 29/25 Q1009 NOSIG
VTBU 211330Z 20005KT 9999 FEW020 29/25 Q1009 NOSIG
TAF VTBU 221100Z 2212/2312 21006KT 9999 FEW020 
     TEMPO 2305/2310 VRB10G20KT 5000 TSRA FEW018CB SCT035 BKN100